sensor_id;sensor_type;location;lat;lon;timestamp;P1;durP1;ratioP1;P2;durP2;ratioP2
28007;SDS011;15333;50.010;20.020;2022-08-01T00:00:14;31.58;;;24.25;;
28007;SDS011;15333;50.010;20.020;2022-08-01T00:03:34;32.50;;;26.20;;
28007;SDS011;15333;50.010;20.020;2022-08-01T00:06:35;34.63;;;28.20;;
28007;SDS011;15333;50.010;20.020;2022-08-01T00:09:36;37.83;;;29.65;;
28007;SDS011;15333;50.010;20.020;2022-08-01T00:12:37;40.50;;;31.60;;
28007;SDS011;15333;50.010;20.020;2022-08-01T00:15:38;37.08;;;30.30;;
28007;SDS011;15333;50.010;20.020;2022-08-01T00:18:39;41.53;;;32.60;;
28007;SDS011;15333;50.010;20.020;2022-08-01T00:21:40;38.63;;;29.80;;
28007;SDS011;15333;50.010;20.020;2022-08-01T00:24:41;38.30;;;29.23;;
28007;SDS011;15333;50.010;20.020;2022-08-01T00:27:41;45.55;;;30.90;;
28007;SDS011;15333;50.010;20.020;2022-08-01T00:30:42;44.25;;;30.90;;
28007;SDS011;15333;50.010;20.020;2022-08-01T00:33:43;40.95;;;30.35;;
28007;SDS011;15333;50.010;20.020;2022-08-01T00:36:44;43.38;;;30.08;;
28007;SDS011;15333;50.010;20.020;2022-08-01T00:39:45;41.67;;;29.77;;
28007;SDS011;15333;50.010;20.020;2022-08-01T00:42:46;43.55;;;29.15;;
28007;SDS011;15333;50.010;20.020;2022-08-01T00:45:46;37.10;;;29.52;;
28007;SDS011;15333;50.010;20.020;2022-08-01T00:48:47;41.40;;;30.63;;
28007;SDS011;15333;50.010;20.020;2022-08-01T00:51:48;39.47;;;30.13;;
28007;SDS011;15333;50.010;20.020;2022-08-01T00:54:49;38.30;;;28.65;;
28007;SDS011;15333;50.010;20.020;2022-08-01T00:57:50;36.90;;;27.35;;
28007;SDS011;15333;50.010;20.020;2022-08-01T01:00:51;36.03;;;27.15;;
28007;SDS011;15333;50.010;20.020;2022-08-01T01:03:52;36.95;;;27.80;;
28007;SDS011;15333;50.010;20.020;2022-08-01T01:10:12;37.17;;;27.73;;
28007;SDS011;15333;50.010;20.020;2022-08-01T01:16:43;42.15;;;27.30;;
28007;SDS011;15333;50.010;20.020;2022-08-01T01:19:47;37.40;;;27.05;;
28007;SDS011;15333;50.010;20.020;2022-08-01T01:29:54;38.78;;;26.23;;
28007;SDS011;15333;50.010;20.020;2022-08-01T01:32:58;32.60;;;25.00;;
28007;SDS011;15333;50.010;20.020;2022-08-01T01:36:03;37.33;;;24.52;;
28007;SDS011;15333;50.010;20.020;2022-08-01T01:39:08;33.28;;;23.33;;
28007;SDS011;15333;50.010;20.020;2022-08-01T01:42:10;35.60;;;23.45;;
28007;SDS011;15333;50.010;20.020;2022-08-01T01:45:11;27.90;;;22.33;;
28007;SDS011;15333;50.010;20.020;2022-08-01T01:48:13;32.35;;;22.58;;
28007;SDS011;15333;50.010;20.020;2022-08-01T01:51:17;25.55;;;22.02;;
28007;SDS011;15333;50.010;20.020;2022-08-01T01:54:27;29.55;;;23.45;;
28007;SDS011;15333;50.010;20.020;2022-08-01T02:00:33;26.52;;;21.63;;
28007;SDS011;15333;50.010;20.020;2022-08-01T02:03:35;32.40;;;23.73;;
28007;SDS011;15333;50.010;20.020;2022-08-01T02:06:37;28.25;;;23.42;;
28007;SDS011;15333;50.010;20.020;2022-08-01T02:09:40;32.25;;;23.85;;
28007;SDS011;15333;50.010;20.020;2022-08-01T02:12:43;30.80;;;25.10;;
28007;SDS011;15333;50.010;20.020;2022-08-01T02:15:46;31.83;;;25.50;;
28007;SDS011;15333;50.010;20.020;2022-08-01T02:18:47;36.88;;;26.45;;
28007;SDS011;15333;50.010;20.020;2022-08-01T02:21:49;37.42;;;27.30;;
28007;SDS011;15333;50.010;20.020;2022-08-01T02:24:59;35.72;;;26.40;;
28007;SDS011;15333;50.010;20.020;2022-08-01T02:28:07;35.75;;;27.02;;
28007;SDS011;15333;50.010;20.020;2022-08-01T02:31:14;39.53;;;27.02;;
28007;SDS011;15333;50.010;20.020;2022-08-01T02:34:19;41.83;;;27.63;;
28007;SDS011;15333;50.010;20.020;2022-08-01T02:37:21;38.70;;;29.75;;
28007;SDS011;15333;50.010;20.020;2022-08-01T02:40:27;36.97;;;28.70;;
28007;SDS011;15333;50.010;20.020;2022-08-01T02:43:30;41.38;;;30.02;;
28007;SDS011;15333;50.010;20.020;2022-08-01T02:46:43;43.05;;;33.65;;
28007;SDS011;15333;50.010;20.020;2022-08-01T02:49:51;47.88;;;33.08;;
28007;SDS011;15333;50.010;20.020;2022-08-01T02:52:54;47.42;;;35.72;;
28007;SDS011;15333;50.010;20.020;2022-08-01T02:55:57;53.30;;;36.28;;
28007;SDS011;15333;50.010;20.020;2022-08-01T02:59:03;48.90;;;36.35;;
28007;SDS011;15333;50.010;20.020;2022-08-01T03:02:07;50.70;;;37.08;;
28007;SDS011;15333;50.010;20.020;2022-08-01T03:05:11;53.17;;;39.40;;
28007;SDS011;15333;50.010;20.020;2022-08-01T03:08:13;57.95;;;40.55;;
28007;SDS011;15333;50.010;20.020;2022-08-01T03:11:15;54.40;;;37.60;;
28007;SDS011;15333;50.010;20.020;2022-08-01T03:14:17;51.60;;;38.80;;
28007;SDS011;15333;50.010;20.020;2022-08-01T03:17:21;61.08;;;40.60;;
28007;SDS011;15333;50.010;20.020;2022-08-01T03:20:25;58.40;;;42.47;;
28007;SDS011;15333;50.010;20.020;2022-08-01T03:23:27;62.38;;;43.75;;
28007;SDS011;15333;50.010;20.020;2022-08-01T03:26:33;63.72;;;46.58;;
28007;SDS011;15333;50.010;20.020;2022-08-01T03:29:36;69.78;;;47.35;;
28007;SDS011;15333;50.010;20.020;2022-08-01T03:32:39;66.30;;;46.92;;
28007;SDS011;15333;50.010;20.020;2022-08-01T03:35:42;65.90;;;47.78;;
28007;SDS011;15333;50.010;20.020;2022-08-01T03:38:55;74.85;;;48.42;;
28007;SDS011;15333;50.010;20.020;2022-08-01T03:42:00;70.90;;;49.15;;
28007;SDS011;15333;50.010;20.020;2022-08-01T03:45:10;68.95;;;48.97;;
28007;SDS011;15333;50.010;20.020;2022-08-01T03:48:16;70.03;;;50.17;;
28007;SDS011;15333;50.010;20.020;2022-08-01T03:51:18;67.60;;;48.92;;
28007;SDS011;15333;50.010;20.020;2022-08-01T03:54:28;65.60;;;48.53;;
28007;SDS011;15333;50.010;20.020;2022-08-01T03:57:33;67.75;;;47.42;;
28007;SDS011;15333;50.010;20.020;2022-08-01T04:00:36;69.10;;;47.85;;
28007;SDS011;15333;50.010;20.020;2022-08-01T04:03:39;67.20;;;45.53;;
28007;SDS011;15333;50.010;20.020;2022-08-01T04:06:41;65.05;;;45.15;;
28007;SDS011;15333;50.010;20.020;2022-08-01T04:09:42;62.90;;;44.78;;
28007;SDS011;15333;50.010;20.020;2022-08-01T04:12:42;57.30;;;42.58;;
28007;SDS011;15333;50.010;20.020;2022-08-01T04:15:43;49.30;;;37.30;;
28007;SDS011;15333;50.010;20.020;2022-08-01T04:18:44;43.05;;;33.53;;
28007;SDS011;15333;50.010;20.020;2022-08-01T04:21:45;34.50;;;27.50;;
28007;SDS011;15333;50.010;20.020;2022-08-01T04:24:47;28.00;;;20.90;;
28007;SDS011;15333;50.010;20.020;2022-08-01T04:27:51;25.63;;;18.25;;
28007;SDS011;15333;50.010;20.020;2022-08-01T04:30:54;22.17;;;15.43;;
28007;SDS011;15333;50.010;20.020;2022-08-01T04:33:56;22.83;;;16.10;;
28007;SDS011;15333;50.010;20.020;2022-08-01T04:36:58;23.92;;;14.18;;
28007;SDS011;15333;50.010;20.020;2022-08-01T04:40:00;19.92;;;14.80;;
28007;SDS011;15333;50.010;20.020;2022-08-01T04:43:02;18.52;;;15.18;;
28007;SDS011;15333;50.010;20.020;2022-08-01T04:46:03;19.50;;;14.45;;
28007;SDS011;15333;50.010;20.020;2022-08-01T04:49:06;20.13;;;15.20;;
28007;SDS011;15333;50.010;20.020;2022-08-01T04:52:09;22.27;;;16.05;;
28007;SDS011;15333;50.010;20.020;2022-08-01T04:55:10;21.88;;;16.77;;
28007;SDS011;15333;50.010;20.020;2022-08-01T04:58:11;18.60;;;15.88;;
28007;SDS011;15333;50.010;20.020;2022-08-01T05:01:13;20.83;;;15.63;;
28007;SDS011;15333;50.010;20.020;2022-08-01T05:04:14;23.23;;;15.43;;
28007;SDS011;15333;50.010;20.020;2022-08-01T05:07:15;19.08;;;13.85;;
28007;SDS011;15333;50.010;20.020;2022-08-01T05:10:16;22.88;;;14.00;;
28007;SDS011;15333;50.010;20.020;2022-08-01T05:13:17;18.95;;;13.57;;
28007;SDS011;15333;50.010;20.020;2022-08-01T05:16:17;18.50;;;13.07;;
28007;SDS011;15333;50.010;20.020;2022-08-01T05:19:19;18.50;;;14.18;;
28007;SDS011;15333;50.010;20.020;2022-08-01T05:22:20;17.58;;;14.50;;
28007;SDS011;15333;50.010;20.020;2022-08-01T05:25:22;20.92;;;15.07;;
28007;SDS011;15333;50.010;20.020;2022-08-01T05:28:23;22.38;;;16.67;;
28007;SDS011;15333;50.010;20.020;2022-08-01T05:31:24;20.50;;;14.57;;
28007;SDS011;15333;50.010;20.020;2022-08-01T05:34:25;23.77;;;14.80;;
28007;SDS011;15333;50.010;20.020;2022-08-01T05:37:26;19.85;;;14.40;;
28007;SDS011;15333;50.010;20.020;2022-08-01T05:40:27;22.13;;;14.38;;
28007;SDS011;15333;50.010;20.020;2022-08-01T05:43:28;20.40;;;14.63;;
28007;SDS011;15333;50.010;20.020;2022-08-01T05:46:29;19.05;;;12.70;;
28007;SDS011;15333;50.010;20.020;2022-08-01T05:49:31;22.00;;;13.35;;
28007;SDS011;15333;50.010;20.020;2022-08-01T05:52:33;16.92;;;12.77;;
28007;SDS011;15333;50.010;20.020;2022-08-01T05:55:34;15.05;;;11.90;;
28007;SDS011;15333;50.010;20.020;2022-08-01T05:58:35;19.67;;;13.23;;
28007;SDS011;15333;50.010;20.020;2022-08-01T06:01:39;20.40;;;14.90;;
28007;SDS011;15333;50.010;20.020;2022-08-01T06:04:39;19.48;;;14.43;;
28007;SDS011;15333;50.010;20.020;2022-08-01T06:07:41;22.27;;;14.13;;
28007;SDS011;15333;50.010;20.020;2022-08-01T06:10:41;21.30;;;14.50;;
28007;SDS011;15333;50.010;20.020;2022-08-01T06:13:43;18.75;;;14.82;;
28007;SDS011;15333;50.010;20.020;2022-08-01T06:16:43;20.08;;;15.00;;
28007;SDS011;15333;50.010;20.020;2022-08-01T06:19:44;23.70;;;14.95;;
28007;SDS011;15333;50.010;20.020;2022-08-01T06:22:45;18.77;;;14.15;;
28007;SDS011;15333;50.010;20.020;2022-08-01T06:25:46;20.58;;;13.38;;
28007;SDS011;15333;50.010;20.020;2022-08-01T06:28:47;21.40;;;13.18;;
28007;SDS011;15333;50.010;20.020;2022-08-01T06:31:48;21.05;;;14.07;;
28007;SDS011;15333;50.010;20.020;2022-08-01T06:34:49;16.65;;;12.45;;
28007;SDS011;15333;50.010;20.020;2022-08-01T06:37:50;18.85;;;12.55;;
28007;SDS011;15333;50.010;20.020;2022-08-01T06:40:51;16.70;;;12.20;;
28007;SDS011;15333;50.010;20.020;2022-08-01T06:43:52;16.75;;;11.82;;
28007;SDS011;15333;50.010;20.020;2022-08-01T06:46:52;15.32;;;11.13;;
28007;SDS011;15333;50.010;20.020;2022-08-01T06:49:53;16.80;;;11.15;;
28007;SDS011;15333;50.010;20.020;2022-08-01T06:52:54;17.85;;;11.93;;
28007;SDS011;15333;50.010;20.020;2022-08-01T06:55:55;17.95;;;10.88;;
28007;SDS011;15333;50.010;20.020;2022-08-01T06:58:56;14.02;;;10.30;;
28007;SDS011;15333;50.010;20.020;2022-08-01T07:02:01;17.30;;;10.55;;
28007;SDS011;15333;50.010;20.020;2022-08-01T07:05:03;16.27;;;9.82;;
28007;SDS011;15333;50.010;20.020;2022-08-01T07:08:04;17.50;;;10.02;;
28007;SDS011;15333;50.010;20.020;2022-08-01T07:11:05;13.68;;;10.68;;
28007;SDS011;15333;50.010;20.020;2022-08-01T07:14:06;14.07;;;8.45;;
28007;SDS011;15333;50.010;20.020;2022-08-01T07:17:07;9.57;;;8.02;;
28007;SDS011;15333;50.010;20.020;2022-08-01T07:20:08;10.95;;;7.32;;
28007;SDS011;15333;50.010;20.020;2022-08-01T07:23:10;15.73;;;9.45;;
28007;SDS011;15333;50.010;20.020;2022-08-01T07:26:11;14.32;;;7.50;;
28007;SDS011;15333;50.010;20.020;2022-08-01T07:29:13;10.32;;;7.07;;
28007;SDS011;15333;50.010;20.020;2022-08-01T07:32:14;14.70;;;6.75;;
28007;SDS011;15333;50.010;20.020;2022-08-01T07:35:15;12.70;;;6.80;;
28007;SDS011;15333;50.010;20.020;2022-08-01T07:38:16;7.07;;;6.22;;
28007;SDS011;15333;50.010;20.020;2022-08-01T07:41:17;8.43;;;6.18;;
28007;SDS011;15333;50.010;20.020;2022-08-01T07:44:18;9.95;;;6.13;;
28007;SDS011;15333;50.010;20.020;2022-08-01T07:47:25;10.90;;;5.60;;
28007;SDS011;15333;50.010;20.020;2022-08-01T07:50:26;11.20;;;6.38;;
28007;SDS011;15333;50.010;20.020;2022-08-01T07:53:27;10.75;;;5.63;;
28007;SDS011;15333;50.010;20.020;2022-08-01T07:56:29;8.25;;;5.57;;
28007;SDS011;15333;50.010;20.020;2022-08-01T07:59:30;11.65;;;6.00;;
28007;SDS011;15333;50.010;20.020;2022-08-01T08:02:31;10.38;;;5.72;;
28007;SDS011;15333;50.010;20.020;2022-08-01T08:05:34;10.77;;;5.35;;
28007;SDS011;15333;50.010;20.020;2022-08-01T08:08:35;7.82;;;4.70;;
28007;SDS011;15333;50.010;20.020;2022-08-01T08:11:36;7.13;;;4.82;;
28007;SDS011;15333;50.010;20.020;2022-08-01T08:14:37;7.65;;;4.65;;
28007;SDS011;15333;50.010;20.020;2022-08-01T08:17:38;6.57;;;4.80;;
28007;SDS011;15333;50.010;20.020;2022-08-01T08:20:39;8.95;;;4.78;;
28007;SDS011;15333;50.010;20.020;2022-08-01T08:23:40;5.93;;;4.25;;
28007;SDS011;15333;50.010;20.020;2022-08-01T08:27:00;8.83;;;4.30;;
28007;SDS011;15333;50.010;20.020;2022-08-01T08:30:02;6.80;;;4.57;;
28007;SDS011;15333;50.010;20.020;2022-08-01T08:33:05;8.55;;;4.10;;
28007;SDS011;15333;50.010;20.020;2022-08-01T08:36:06;6.68;;;4.13;;
28007;SDS011;15333;50.010;20.020;2022-08-01T08:39:07;7.18;;;4.18;;
28007;SDS011;15333;50.010;20.020;2022-08-01T08:42:08;8.48;;;4.65;;
28007;SDS011;15333;50.010;20.020;2022-08-01T08:45:10;6.60;;;3.72;;
28007;SDS011;15333;50.010;20.020;2022-08-01T08:48:12;5.40;;;3.70;;
28007;SDS011;15333;50.010;20.020;2022-08-01T08:51:13;9.18;;;3.85;;
28007;SDS011;15333;50.010;20.020;2022-08-01T08:54:22;6.00;;;3.50;;
28007;SDS011;15333;50.010;20.020;2022-08-01T08:57:24;6.28;;;4.30;;
28007;SDS011;15333;50.010;20.020;2022-08-01T09:00:26;9.75;;;4.07;;
28007;SDS011;15333;50.010;20.020;2022-08-01T09:03:28;7.07;;;3.80;;
28007;SDS011;15333;50.010;20.020;2022-08-01T09:06:29;4.38;;;3.30;;
28007;SDS011;15333;50.010;20.020;2022-08-01T09:09:30;6.85;;;3.80;;
28007;SDS011;15333;50.010;20.020;2022-08-01T09:12:31;7.07;;;3.45;;
28007;SDS011;15333;50.010;20.020;2022-08-01T09:18:43;6.10;;;3.50;;
28007;SDS011;15333;50.010;20.020;2022-08-01T09:21:56;7.15;;;3.83;;
28007;SDS011;15333;50.010;20.020;2022-08-01T09:28:05;6.82;;;2.97;;
28007;SDS011;15333;50.010;20.020;2022-08-01T09:31:10;5.55;;;3.13;;
28007;SDS011;15333;50.010;20.020;2022-08-01T09:34:13;4.07;;;3.28;;
28007;SDS011;15333;50.010;20.020;2022-08-01T09:37:15;8.50;;;3.78;;
28007;SDS011;15333;50.010;20.020;2022-08-01T09:40:18;7.05;;;3.22;;
28007;SDS011;15333;50.010;20.020;2022-08-01T09:43:20;6.57;;;3.45;;
28007;SDS011;15333;50.010;20.020;2022-08-01T09:46:22;5.90;;;3.25;;
28007;SDS011;15333;50.010;20.020;2022-08-01T09:49:27;9.00;;;3.60;;
28007;SDS011;15333;50.010;20.020;2022-08-01T09:52:29;6.20;;;3.85;;
28007;SDS011;15333;50.010;20.020;2022-08-01T09:55:30;6.18;;;3.28;;
28007;SDS011;15333;50.010;20.020;2022-08-01T09:58:34;6.63;;;3.75;;
28007;SDS011;15333;50.010;20.020;2022-08-01T10:01:49;7.32;;;3.40;;
28007;SDS011;15333;50.010;20.020;2022-08-01T10:04:51;3.78;;;2.58;;
28007;SDS011;15333;50.010;20.020;2022-08-01T10:07:56;6.38;;;2.90;;
28007;SDS011;15333;50.010;20.020;2022-08-01T10:11:07;6.00;;;3.10;;
28007;SDS011;15333;50.010;20.020;2022-08-01T10:14:10;5.03;;;2.92;;
28007;SDS011;15333;50.010;20.020;2022-08-01T10:17:14;5.38;;;2.95;;
28007;SDS011;15333;50.010;20.020;2022-08-01T10:20:16;6.15;;;3.40;;
28007;SDS011;15333;50.010;20.020;2022-08-01T10:23:22;5.00;;;3.20;;
28007;SDS011;15333;50.010;20.020;2022-08-01T10:26:32;11.73;;;2.85;;
28007;SDS011;15333;50.010;20.020;2022-08-01T10:29:40;8.02;;;3.72;;
28007;SDS011;15333;50.010;20.020;2022-08-01T10:32:43;5.57;;;2.92;;
28007;SDS011;15333;50.010;20.020;2022-08-01T10:35:46;5.25;;;2.67;;
28007;SDS011;15333;50.010;20.020;2022-08-01T10:38:48;5.90;;;2.63;;
28007;SDS011;15333;50.010;20.020;2022-08-01T10:41:49;6.20;;;2.97;;
28007;SDS011;15333;50.010;20.020;2022-08-01T10:44:50;7.00;;;3.30;;
28007;SDS011;15333;50.010;20.020;2022-08-01T10:51:24;5.50;;;3.60;;
28007;SDS011;15333;50.010;20.020;2022-08-01T10:54:27;4.60;;;2.90;;
28007;SDS011;15333;50.010;20.020;2022-08-01T10:57:49;11.38;;;3.22;;
28007;SDS011;15333;50.010;20.020;2022-08-01T11:01:11;6.93;;;3.35;;
28007;SDS011;15333;50.010;20.020;2022-08-01T11:04:14;12.07;;;4.00;;
28007;SDS011;15333;50.010;20.020;2022-08-01T11:07:20;14.88;;;6.00;;
28007;SDS011;15333;50.010;20.020;2022-08-01T11:20:37;6.90;;;3.22;;
28007;SDS011;15333;50.010;20.020;2022-08-01T11:23:54;7.63;;;3.50;;
28007;SDS011;15333;50.010;20.020;2022-08-01T11:30:32;3.15;;;2.50;;
28007;SDS011;15333;50.010;20.020;2022-08-01T11:36:44;8.02;;;3.38;;
28007;SDS011;15333;50.010;20.020;2022-08-01T11:40:13;5.80;;;3.05;;
28007;SDS011;15333;50.010;20.020;2022-08-01T11:43:20;7.25;;;3.38;;
28007;SDS011;15333;50.010;20.020;2022-08-01T11:50:03;20.52;;;7.00;;
28007;SDS011;15333;50.010;20.020;2022-08-01T11:53:05;19.33;;;6.10;;
28007;SDS011;15333;50.010;20.020;2022-08-01T11:56:08;15.10;;;4.63;;
28007;SDS011;15333;50.010;20.020;2022-08-01T11:59:11;12.80;;;4.35;;
28007;SDS011;15333;50.010;20.020;2022-08-01T12:02:18;4.70;;;2.53;;
28007;SDS011;15333;50.010;20.020;2022-08-01T12:05:20;6.50;;;3.08;;
28007;SDS011;15333;50.010;20.020;2022-08-01T12:08:25;5.47;;;3.00;;
28007;SDS011;15333;50.010;20.020;2022-08-01T12:11:29;4.45;;;3.05;;
28007;SDS011;15333;50.010;20.020;2022-08-01T12:14:30;4.85;;;3.15;;
28007;SDS011;15333;50.010;20.020;2022-08-01T12:17:33;5.82;;;2.90;;
28007;SDS011;15333;50.010;20.020;2022-08-01T12:20:35;6.07;;;3.22;;
28007;SDS011;15333;50.010;20.020;2022-08-01T12:23:38;3.70;;;3.05;;
28007;SDS011;15333;50.010;20.020;2022-08-01T12:26:42;6.00;;;3.47;;
28007;SDS011;15333;50.010;20.020;2022-08-01T12:29:43;6.18;;;2.97;;
28007;SDS011;15333;50.010;20.020;2022-08-01T12:32:45;3.92;;;2.80;;
28007;SDS011;15333;50.010;20.020;2022-08-01T12:35:47;5.35;;;3.15;;
28007;SDS011;15333;50.010;20.020;2022-08-01T12:38:52;4.65;;;3.30;;
28007;SDS011;15333;50.010;20.020;2022-08-01T12:41:53;6.57;;;3.10;;
28007;SDS011;15333;50.010;20.020;2022-08-01T12:44:54;5.10;;;4.57;;
28007;SDS011;15333;50.010;20.020;2022-08-01T12:47:55;4.63;;;3.00;;
28007;SDS011;15333;50.010;20.020;2022-08-01T12:50:59;6.63;;;3.20;;
28007;SDS011;15333;50.010;20.020;2022-08-01T12:54:03;6.78;;;3.00;;
28007;SDS011;15333;50.010;20.020;2022-08-01T12:57:05;5.70;;;4.00;;
28007;SDS011;15333;50.010;20.020;2022-08-01T13:00:23;5.32;;;3.08;;
28007;SDS011;15333;50.010;20.020;2022-08-01T13:03:25;4.50;;;3.42;;
28007;SDS011;15333;50.010;20.020;2022-08-01T13:06:28;3.97;;;3.22;;
28007;SDS011;15333;50.010;20.020;2022-08-01T13:09:29;7.20;;;3.45;;
28007;SDS011;15333;50.010;20.020;2022-08-01T13:12:30;5.55;;;3.38;;
28007;SDS011;15333;50.010;20.020;2022-08-01T13:15:31;6.75;;;2.90;;
28007;SDS011;15333;50.010;20.020;2022-08-01T13:18:35;4.78;;;3.40;;
28007;SDS011;15333;50.010;20.020;2022-08-01T13:21:37;8.75;;;3.10;;
28007;SDS011;15333;50.010;20.020;2022-08-01T13:24:38;7.53;;;3.33;;
28007;SDS011;15333;50.010;20.020;2022-08-01T13:27:39;8.65;;;3.30;;
28007;SDS011;15333;50.010;20.020;2022-08-01T13:30:50;4.80;;;3.40;;
28007;SDS011;15333;50.010;20.020;2022-08-01T13:33:56;3.60;;;3.00;;
28007;SDS011;15333;50.010;20.020;2022-08-01T13:36:57;6.68;;;2.95;;
28007;SDS011;15333;50.010;20.020;2022-08-01T13:39:58;4.32;;;3.08;;
28007;SDS011;15333;50.010;20.020;2022-08-01T13:42:59;4.57;;;2.95;;
28007;SDS011;15333;50.010;20.020;2022-08-01T13:46:00;6.10;;;2.67;;
28007;SDS011;15333;50.010;20.020;2022-08-01T13:49:04;3.95;;;3.10;;
28007;SDS011;15333;50.010;20.020;2022-08-01T13:52:06;6.95;;;3.63;;
28007;SDS011;15333;50.010;20.020;2022-08-01T13:55:07;6.38;;;3.78;;
28007;SDS011;15333;50.010;20.020;2022-08-01T13:58:08;8.93;;;3.40;;
28007;SDS011;15333;50.010;20.020;2022-08-01T14:01:09;6.25;;;3.60;;
28007;SDS011;15333;50.010;20.020;2022-08-01T14:04:10;6.22;;;3.20;;
28007;SDS011;15333;50.010;20.020;2022-08-01T14:07:11;4.82;;;3.67;;
28007;SDS011;15333;50.010;20.020;2022-08-01T14:10:12;7.20;;;3.92;;
28007;SDS011;15333;50.010;20.020;2022-08-01T14:13:13;5.45;;;3.60;;
28007;SDS011;15333;50.010;20.020;2022-08-01T14:16:14;5.30;;;3.80;;
28007;SDS011;15333;50.010;20.020;2022-08-01T14:19:15;6.07;;;4.13;;
28007;SDS011;15333;50.010;20.020;2022-08-01T14:22:18;7.70;;;4.00;;
28007;SDS011;15333;50.010;20.020;2022-08-01T14:25:19;6.40;;;4.57;;
28007;SDS011;15333;50.010;20.020;2022-08-01T14:28:20;4.40;;;4.00;;
28007;SDS011;15333;50.010;20.020;2022-08-01T14:31:21;5.97;;;4.70;;
28007;SDS011;15333;50.010;20.020;2022-08-01T14:34:22;6.97;;;4.47;;
28007;SDS011;15333;50.010;20.020;2022-08-01T14:37:23;11.10;;;4.93;;
28007;SDS011;15333;50.010;20.020;2022-08-01T14:40:24;15.82;;;5.70;;
28007;SDS011;15333;50.010;20.020;2022-08-01T14:43:24;6.90;;;5.32;;
28007;SDS011;15333;50.010;20.020;2022-08-01T14:46:26;6.47;;;5.20;;
28007;SDS011;15333;50.010;20.020;2022-08-01T14:49:27;6.70;;;5.47;;
28007;SDS011;15333;50.010;20.020;2022-08-01T14:52:28;7.68;;;4.88;;
28007;SDS011;15333;50.010;20.020;2022-08-01T14:55:29;9.85;;;5.57;;
28007;SDS011;15333;50.010;20.020;2022-08-01T14:58:30;7.68;;;4.72;;
28007;SDS011;15333;50.010;20.020;2022-08-01T15:01:31;6.47;;;4.93;;
28007;SDS011;15333;50.010;20.020;2022-08-01T15:04:31;6.63;;;4.68;;
28007;SDS011;15333;50.010;20.020;2022-08-01T15:07:32;7.45;;;4.97;;
28007;SDS011;15333;50.010;20.020;2022-08-01T15:10:34;8.25;;;5.18;;
28007;SDS011;15333;50.010;20.020;2022-08-01T15:13:35;7.85;;;6.05;;
28007;SDS011;15333;50.010;20.020;2022-08-01T15:16:36;7.22;;;5.57;;
28007;SDS011;15333;50.010;20.020;2022-08-01T15:19:38;9.13;;;5.30;;
28007;SDS011;15333;50.010;20.020;2022-08-01T15:22:38;7.10;;;5.35;;
28007;SDS011;15333;50.010;20.020;2022-08-01T15:25:39;8.68;;;5.60;;
28007;SDS011;15333;50.010;20.020;2022-08-01T15:28:40;8.15;;;4.97;;
28007;SDS011;15333;50.010;20.020;2022-08-01T15:31:41;8.15;;;5.63;;
28007;SDS011;15333;50.010;20.020;2022-08-01T15:34:42;6.45;;;5.75;;
28007;SDS011;15333;50.010;20.020;2022-08-01T15:37:43;10.02;;;5.97;;
28007;SDS011;15333;50.010;20.020;2022-08-01T15:40:44;6.55;;;5.95;;
28007;SDS011;15333;50.010;20.020;2022-08-01T15:43:47;6.88;;;5.78;;
28007;SDS011;15333;50.010;20.020;2022-08-01T15:46:48;8.68;;;5.82;;
28007;SDS011;15333;50.010;20.020;2022-08-01T15:49:50;6.32;;;5.72;;
28007;SDS011;15333;50.010;20.020;2022-08-01T15:52:50;8.00;;;5.32;;
28007;SDS011;15333;50.010;20.020;2022-08-01T15:55:51;11.93;;;6.22;;
28007;SDS011;15333;50.010;20.020;2022-08-01T15:58:52;9.70;;;6.07;;
28007;SDS011;15333;50.010;20.020;2022-08-01T16:01:53;8.40;;;5.15;;
28007;SDS011;15333;50.010;20.020;2022-08-01T16:04:53;6.95;;;5.65;;
28007;SDS011;15333;50.010;20.020;2022-08-01T16:07:54;6.40;;;5.80;;
28007;SDS011;15333;50.010;20.020;2022-08-01T16:10:55;5.50;;;5.00;;
28007;SDS011;15333;50.010;20.020;2022-08-01T16:13:56;6.07;;;5.15;;
28007;SDS011;15333;50.010;20.020;2022-08-01T16:16:58;6.13;;;4.80;;
28007;SDS011;15333;50.010;20.020;2022-08-01T16:19:59;6.13;;;5.20;;
28007;SDS011;15333;50.010;20.020;2022-08-01T16:23:00;7.45;;;5.57;;
28007;SDS011;15333;50.010;20.020;2022-08-01T16:26:01;8.38;;;5.68;;
28007;SDS011;15333;50.010;20.020;2022-08-01T16:29:02;8.52;;;5.43;;
28007;SDS011;15333;50.010;20.020;2022-08-01T16:32:03;7.63;;;5.43;;
28007;SDS011;15333;50.010;20.020;2022-08-01T16:35:04;8.18;;;5.78;;
28007;SDS011;15333;50.010;20.020;2022-08-01T16:38:05;11.10;;;5.55;;
28007;SDS011;15333;50.010;20.020;2022-08-01T16:41:06;8.23;;;5.88;;
28007;SDS011;15333;50.010;20.020;2022-08-01T16:44:07;9.77;;;5.97;;
28007;SDS011;15333;50.010;20.020;2022-08-01T16:47:08;6.68;;;5.95;;
28007;SDS011;15333;50.010;20.020;2022-08-01T16:50:09;8.35;;;5.85;;
28007;SDS011;15333;50.010;20.020;2022-08-01T16:53:09;11.27;;;6.18;;
28007;SDS011;15333;50.010;20.020;2022-08-01T16:56:10;7.80;;;6.15;;
28007;SDS011;15333;50.010;20.020;2022-08-01T16:59:11;7.68;;;6.38;;
28007;SDS011;15333;50.010;20.020;2022-08-01T17:02:12;9.65;;;6.60;;
28007;SDS011;15333;50.010;20.020;2022-08-01T17:05:13;8.55;;;6.50;;
28007;SDS011;15333;50.010;20.020;2022-08-01T17:08:14;9.75;;;7.35;;
28007;SDS011;15333;50.010;20.020;2022-08-01T17:11:15;11.95;;;7.00;;
28007;SDS011;15333;50.010;20.020;2022-08-01T17:14:16;8.65;;;6.65;;
28007;SDS011;15333;50.010;20.020;2022-08-01T17:17:18;11.10;;;7.47;;
28007;SDS011;15333;50.010;20.020;2022-08-01T17:20:19;10.38;;;7.22;;
28007;SDS011;15333;50.010;20.020;2022-08-01T17:23:20;7.70;;;6.85;;
28007;SDS011;15333;50.010;20.020;2022-08-01T17:26:21;9.20;;;7.40;;
28007;SDS011;15333;50.010;20.020;2022-08-01T17:29:22;9.63;;;7.68;;
28007;SDS011;15333;50.010;20.020;2022-08-01T17:32:23;16.33;;;7.72;;
28007;SDS011;15333;50.010;20.020;2022-08-01T17:35:24;10.60;;;7.22;;
28007;SDS011;15333;50.010;20.020;2022-08-01T17:38:25;13.02;;;7.75;;
28007;SDS011;15333;50.010;20.020;2022-08-01T17:41:26;11.35;;;7.28;;
28007;SDS011;15333;50.010;20.020;2022-08-01T17:44:27;10.35;;;7.80;;
28007;SDS011;15333;50.010;20.020;2022-08-01T17:47:27;8.57;;;7.75;;
28007;SDS011;15333;50.010;20.020;2022-08-01T17:50:28;11.35;;;8.48;;
28007;SDS011;15333;50.010;20.020;2022-08-01T17:53:29;9.35;;;8.32;;
28007;SDS011;15333;50.010;20.020;2022-08-01T17:56:30;9.25;;;7.18;;
28007;SDS011;15333;50.010;20.020;2022-08-01T17:59:31;12.35;;;9.95;;
28007;SDS011;15333;50.010;20.020;2022-08-01T18:02:32;8.40;;;6.82;;
28007;SDS011;15333;50.010;20.020;2022-08-01T18:05:33;8.07;;;7.30;;
28007;SDS011;15333;50.010;20.020;2022-08-01T18:08:38;11.90;;;7.90;;
28007;SDS011;15333;50.010;20.020;2022-08-01T18:11:41;12.90;;;8.18;;
28007;SDS011;15333;50.010;20.020;2022-08-01T18:14:42;11.93;;;8.38;;
28007;SDS011;15333;50.010;20.020;2022-08-01T18:17:43;11.38;;;8.27;;
28007;SDS011;15333;50.010;20.020;2022-08-01T18:20:44;13.38;;;8.20;;
28007;SDS011;15333;50.010;20.020;2022-08-01T18:23:48;9.85;;;8.85;;
28007;SDS011;15333;50.010;20.020;2022-08-01T18:26:49;12.02;;;9.55;;
28007;SDS011;15333;50.010;20.020;2022-08-01T18:29:50;11.85;;;9.38;;
28007;SDS011;15333;50.010;20.020;2022-08-01T18:32:51;9.95;;;8.95;;
28007;SDS011;15333;50.010;20.020;2022-08-01T18:35:52;11.15;;;9.57;;